createdAt,value
2019-04-29T00:01:13.804Z,99.90
2019-04-29T00:03:43.483Z,99.90
2019-04-29T00:06:12.885Z,99.90
2019-04-29T00:08:42.375Z,99.90
2019-04-29T00:11:11.837Z,99.90
2019-04-29T00:13:41.253Z,99.90
2019-04-29T00:16:20.130Z,99.90
2019-04-29T00:19:08.747Z,99.90
2019-04-29T00:21:38.915Z,99.90
2019-04-29T00:24:08.695Z,99.90
2019-04-29T00:26:38.125Z,99.90
2019-04-29T00:29:07.952Z,99.90
2019-04-29T00:31:37.336Z,99.90
2019-04-29T00:34:07.175Z,99.90
2019-04-29T00:36:42.951Z,99.90
2019-04-29T00:39:29.961Z,99.90
2019-04-29T00:42:11.282Z,99.90
2019-04-29T00:44:40.673Z,99.90
2019-04-29T00:47:10.058Z,99.90
2019-04-29T00:49:39.408Z,99.90
2019-04-29T00:52:08.777Z,99.90
2019-04-29T00:54:46.434Z,99.90
2019-04-29T00:57:16.123Z,99.90
2019-04-29T00:59:45.539Z,99.90
2019-04-29T01:02:14.921Z,99.90
2019-04-29T01:04:44.620Z,99.90
2019-04-29T01:07:14.006Z,99.90
2019-04-29T01:09:43.472Z,99.90
2019-04-29T01:12:13.142Z,99.90
2019-04-29T01:14:42.567Z,99.90
2019-04-29T01:17:11.943Z,99.90
2019-04-29T01:19:41.348Z,99.90
2019-04-29T01:22:10.725Z,99.90
2019-04-29T01:24:40.411Z,99.90
2019-04-29T01:27:32.317Z,99.90
2019-04-29T01:30:02.207Z,99.90
2019-04-29T01:32:31.895Z,99.90
2019-04-29T01:35:01.647Z,99.90
2019-04-29T01:37:37.496Z,99.90
2019-04-29T01:40:29.600Z,99.90
2019-04-29T01:42:59.000Z,99.90
2019-04-29T01:45:28.708Z,99.90
2019-04-29T01:47:58.096Z,99.90
2019-04-29T01:50:28.290Z,99.90
2019-04-29T01:52:57.816Z,99.90
2019-04-29T01:55:28.422Z,99.90
2019-04-29T01:57:57.909Z,99.90
2019-04-29T02:00:27.321Z,99.90
2019-04-29T02:02:56.976Z,99.90
2019-04-29T02:05:26.380Z,99.90
2019-04-29T02:07:56.188Z,99.90
2019-04-29T02:10:33.558Z,99.90
2019-04-29T02:13:02.975Z,99.90
2019-04-29T02:15:32.675Z,99.90
2019-04-29T02:18:02.068Z,99.90
2019-04-29T02:20:32.273Z,99.90
2019-04-29T02:23:29.456Z,99.90
2019-04-29T02:25:58.880Z,99.90
2019-04-29T02:28:28.289Z,99.90
2019-04-29T02:30:59.261Z,99.90
2019-04-29T02:33:28.899Z,99.90
2019-04-29T02:35:58.575Z,99.90
2019-04-29T02:38:34.970Z,99.90
2019-04-29T02:41:17.601Z,99.90
2019-04-29T02:43:48.780Z,99.90
2019-04-29T02:46:18.180Z,99.90
2019-04-29T02:48:47.677Z,99.90
2019-04-29T02:51:36.046Z,99.90
2019-04-29T02:54:05.439Z,99.90
2019-04-29T02:56:34.862Z,99.90
2019-04-29T02:59:05.442Z,99.90
2019-04-29T03:01:52.314Z,99.90
2019-04-29T03:04:24.706Z,99.90
2019-04-29T03:06:54.117Z,99.90
2019-04-29T03:09:23.839Z,99.90
2019-04-29T03:11:53.272Z,99.90
2019-04-29T03:14:23.245Z,99.90
2019-04-29T03:16:53.065Z,99.90
2019-04-29T03:19:30.473Z,99.90
2019-04-29T03:22:01.710Z,99.90
2019-04-29T03:24:31.354Z,99.90
2019-04-29T03:27:01.060Z,99.90
2019-04-29T03:29:30.708Z,99.90
2019-04-29T03:32:00.141Z,99.90
2019-04-29T03:34:29.531Z,99.90
2019-04-29T03:36:59.236Z,99.90
2019-04-29T03:39:28.609Z,99.90
2019-04-29T03:41:58.146Z,99.90
2019-04-29T03:44:27.538Z,99.90
2019-04-29T03:46:56.961Z,99.90
2019-04-29T03:49:26.337Z,99.90
2019-04-29T03:51:56.024Z,99.90
2019-04-29T03:54:25.668Z,99.90
2019-04-29T03:56:55.089Z,99.90
2019-04-29T03:59:24.471Z,99.90
2019-04-29T04:02:12.829Z,99.90
2019-04-29T04:05:19.117Z,99.90
2019-04-29T04:07:55.359Z,99.90
2019-04-29T04:10:25.378Z,99.90
2019-04-29T04:12:55.163Z,99.90
2019-04-29T04:15:24.545Z,99.90
2019-04-29T04:18:01.956Z,99.90
2019-04-29T04:20:31.340Z,99.90
2019-04-29T04:23:00.752Z,99.90
2019-04-29T04:25:30.131Z,99.90
2019-04-29T04:27:59.543Z,99.90
2019-04-29T04:30:29.207Z,99.90
2019-04-29T04:32:59.025Z,99.90
2019-04-29T04:35:28.425Z,99.90
2019-04-29T04:37:57.856Z,99.90
2019-04-29T04:40:34.290Z,99.90
2019-04-29T04:43:03.708Z,99.90
2019-04-29T04:45:33.389Z,99.90
2019-04-29T04:48:02.790Z,99.90
2019-04-29T04:50:32.177Z,99.90
2019-04-29T04:53:01.599Z,99.90
2019-04-29T04:55:33.438Z,99.90
2019-04-29T04:58:02.860Z,99.90
2019-04-29T05:00:33.815Z,99.90
2019-04-29T05:03:03.234Z,99.90
2019-04-29T05:05:33.246Z,99.90
2019-04-29T05:08:02.776Z,99.90
2019-04-29T05:10:32.365Z,99.90
2019-04-29T05:13:01.809Z,99.90
2019-04-29T05:15:31.470Z,99.90
2019-04-29T05:18:00.880Z,99.90
2019-04-29T05:20:30.273Z,99.90
2019-04-29T05:22:59.958Z,99.90
2019-04-29T05:25:30.427Z,99.90
2019-04-29T05:27:59.970Z,99.90
2019-04-29T05:30:29.470Z,99.90
2019-04-29T05:32:58.893Z,99.90
2019-04-29T05:35:46.026Z,99.90
2019-04-29T05:38:34.694Z,99.90
2019-04-29T05:41:04.093Z,99.90
2019-04-29T05:43:45.557Z,99.30
2019-04-29T05:46:31.281Z,99.40
2019-04-29T05:49:02.402Z,99.50
2019-04-29T05:51:42.688Z,99.40
2019-04-29T05:54:12.985Z,98.90
2019-04-29T05:56:42.392Z,99.00
2019-04-29T05:59:12.817Z,98.30
2019-04-29T06:01:47.250Z,98.50
2019-04-29T06:04:16.245Z,98.50
2019-04-29T06:06:45.437Z,98.50
2019-04-29T06:09:16.964Z,98.50
2019-04-29T06:11:46.129Z,98.50
2019-04-29T06:14:15.602Z,98.50
2019-04-29T06:16:45.012Z,97.70
2019-04-29T06:19:14.423Z,97.50
2019-04-29T06:21:44.132Z,97.20
2019-04-29T06:24:13.582Z,97.20
2019-04-29T06:26:43.822Z,96.30
2019-04-29T06:29:13.562Z,96.80
2019-04-29T06:31:42.973Z,96.20
2019-04-29T06:34:12.419Z,95.70
2019-04-29T06:36:41.780Z,95.10
2019-04-29T06:39:11.514Z,95.10
2019-04-29T06:41:45.508Z,94.40
2019-04-29T06:44:16.567Z,94.00
2019-04-29T06:46:43.592Z,93.90
2019-04-29T06:49:13.019Z,93.30
2019-04-29T06:51:42.786Z,92.80
2019-04-29T06:54:12.213Z,92.90
2019-04-29T06:56:41.624Z,93.00
2019-04-29T06:59:12.290Z,92.80
2019-04-29T07:01:42.069Z,92.80
2019-04-29T07:04:11.472Z,92.50
2019-04-29T07:06:41.270Z,92.60
2019-04-29T07:09:10.660Z,91.10
2019-04-29T07:11:40.353Z,91.30
2019-04-29T07:14:10.033Z,92.30
2019-04-29T07:16:39.480Z,92.10
2019-04-29T07:19:08.876Z,91.90
2019-04-29T07:21:41.811Z,92.20
2019-04-29T07:24:09.859Z,91.60
2019-04-29T07:26:39.561Z,90.90
2019-04-29T07:29:08.951Z,91.10
2019-04-29T07:31:38.405Z,90.80
2019-04-29T07:34:08.522Z,91.00
2019-04-29T07:36:38.004Z,91.30
2019-04-29T07:39:07.817Z,90.70
2019-04-29T07:41:37.562Z,91.00
2019-04-29T07:44:06.941Z,90.50
2019-04-29T07:46:56.636Z,90.60
2019-04-29T07:49:21.049Z,91.10
2019-04-29T07:51:50.483Z,91.40
2019-04-29T07:54:20.150Z,91.40
2019-04-29T07:56:49.570Z,90.70
2019-04-29T07:59:19.208Z,90.80
2019-04-29T08:01:48.636Z,90.70
2019-04-29T08:04:18.023Z,90.70
2019-04-29T08:06:47.549Z,90.70
2019-04-29T08:09:17.148Z,90.20
2019-04-29T08:11:48.287Z,88.90
2019-04-29T08:14:19.614Z,89.70
2019-04-29T08:16:49.040Z,89.70
2019-04-29T08:19:18.460Z,89.70
2019-04-29T08:21:49.702Z,89.30
2019-04-29T08:24:18.924Z,88.40
2019-04-29T08:26:48.340Z,87.10
2019-04-29T08:29:18.207Z,88.00
2019-04-29T08:31:51.949Z,89.00
2019-04-29T08:34:23.057Z,85.60
2019-04-29T08:36:50.320Z,85.40
2019-04-29T08:39:19.711Z,85.40
2019-04-29T08:41:49.114Z,83.10
2019-04-29T08:44:40.307Z,83.50
2019-04-29T08:47:31.638Z,83.70
2019-04-29T08:49:59.711Z,82.00
2019-04-29T08:52:29.121Z,82.10
2019-04-29T08:54:59.073Z,82.60
2019-04-29T08:57:31.716Z,80.50
2019-04-29T08:59:59.569Z,78.90
2019-04-29T09:02:34.994Z,79.60
2019-04-29T09:05:00.373Z,79.10
2019-04-29T09:07:30.146Z,79.00
2019-04-29T09:10:02.039Z,76.00
2019-04-29T09:12:30.913Z,75.20
2019-04-29T09:15:00.328Z,75.30
2019-04-29T09:17:30.043Z,74.50
2019-04-29T09:19:59.426Z,75.00
2019-04-29T09:22:30.660Z,73.50
2019-04-29T09:25:21.541Z,72.20
2019-04-29T09:27:50.030Z,69.90
2019-04-29T09:30:19.690Z,70.00
2019-04-29T09:32:49.099Z,72.90
2019-04-29T09:35:18.498Z,73.00
2019-04-29T09:37:47.919Z,72.60
2019-04-29T09:40:19.141Z,72.00
2019-04-29T09:42:57.217Z,71.40
2019-04-29T09:45:35.337Z,71.60
2019-04-29T09:48:05.118Z,71.70
2019-04-29T09:50:39.085Z,71.00
2019-04-29T09:53:05.660Z,70.50
2019-04-29T09:55:35.656Z,70.00
2019-04-29T09:58:06.429Z,67.00
2019-04-29T10:00:43.131Z,67.00
2019-04-29T10:03:20.084Z,67.10
2019-04-29T10:06:02.368Z,66.40
2019-04-29T10:08:31.782Z,65.20
2019-04-29T10:11:01.476Z,65.20
2019-04-29T10:13:30.941Z,64.90
2019-04-29T10:16:19.571Z,62.60
2019-04-29T10:19:00.706Z,64.30
2019-04-29T10:21:30.864Z,64.20
2019-04-29T10:24:00.610Z,64.70
2019-04-29T10:26:30.011Z,62.50
2019-04-29T10:29:03.788Z,64.20
2019-04-29T10:31:33.201Z,63.10
2019-04-29T10:34:03.294Z,61.80
2019-04-29T10:36:32.698Z,59.10
2019-04-29T10:39:14.149Z,58.90
2019-04-29T10:41:45.006Z,56.90
2019-04-29T10:44:25.556Z,56.80
2019-04-29T10:47:23.217Z,55.10
2019-04-29T10:50:02.426Z,53.00
2019-04-29T10:52:34.493Z,52.90
2019-04-29T10:55:02.880Z,53.60
2019-04-29T10:57:32.304Z,53.60
2019-04-29T11:00:09.338Z,55.00
2019-04-29T11:02:40.152Z,54.70
2019-04-29T11:05:59.956Z,54.10
2019-04-29T11:08:45.326Z,54.50
2019-04-29T11:11:22.723Z,53.70
2019-04-29T11:13:50.336Z,52.90
2019-04-29T11:16:18.027Z,53.50
2019-04-29T11:18:47.531Z,52.90
2019-04-29T11:21:17.301Z,53.20
2019-04-29T11:24:03.247Z,48.60
2019-04-29T11:27:11.580Z,48.70
2019-04-29T11:29:35.897Z,51.60
2019-04-29T11:32:07.414Z,51.60
2019-04-29T11:34:59.248Z,51.40
2019-04-29T11:37:29.062Z,50.40
2019-04-29T11:39:58.735Z,50.90
2019-04-29T11:42:31.790Z,51.40
2019-04-29T11:45:01.966Z,51.40
2019-04-29T11:47:30.832Z,49.60
2019-04-29T11:50:18.850Z,47.30
2019-04-29T11:52:48.246Z,48.30
2019-04-29T11:55:20.108Z,48.70
2019-04-29T11:57:54.541Z,50.00
2019-04-29T12:00:41.744Z,46.80
2019-04-29T12:03:14.498Z,46.60
2019-04-29T12:05:47.777Z,43.30
2019-04-29T12:08:18.475Z,44.70
2019-04-29T12:11:05.676Z,42.60
2019-04-29T12:13:28.327Z,44.70
2019-04-29T12:16:05.555Z,45.40
2019-04-29T12:18:42.443Z,46.80
2019-04-29T12:21:30.893Z,47.10
2019-04-29T12:24:03.270Z,45.10
2019-04-29T12:26:35.565Z,45.50
2019-04-29T12:29:03.934Z,46.10
2019-04-29T12:32:07.509Z,44.70
2019-04-29T12:34:44.307Z,45.10
2019-04-29T12:37:35.437Z,44.90
2019-04-29T12:40:36.531Z,42.50
2019-04-29T12:43:24.885Z,44.30
2019-04-29T12:46:17.161Z,44.20
2019-04-29T12:48:46.810Z,43.60
2019-04-29T12:51:17.079Z,42.70
2019-04-29T12:53:46.941Z,43.50
2019-04-29T12:56:18.917Z,45.50
2019-04-29T12:58:50.647Z,46.60
2019-04-29T13:01:50.235Z,45.00
2019-04-29T13:04:04.351Z,44.70
2019-04-29T13:06:57.195Z,45.40
2019-04-29T13:09:36.785Z,47.70
2019-04-29T13:12:18.936Z,46.60
2019-04-29T13:14:39.753Z,46.30
2019-04-29T13:17:37.732Z,45.30
2019-04-29T13:20:11.742Z,46.20
2019-04-29T13:22:40.444Z,47.40
2019-04-29T13:25:10.181Z,48.00
2019-04-29T13:27:39.565Z,47.80
2019-04-29T13:32:42.061Z,45.40
2019-04-29T13:33:22.654Z,45.30
2019-04-29T13:35:12.724Z,45.40
2019-04-29T13:37:42.283Z,43.50
2019-04-29T13:40:12.179Z,45.20
2019-04-29T13:42:48.464Z,45.00
2019-04-29T13:45:20.001Z,45.10
2019-04-29T13:48:01.842Z,44.50
2019-04-29T13:50:51.090Z,45.30
2019-04-29T13:53:20.494Z,46.40
2019-04-29T13:56:10.041Z,46.40
2019-04-29T13:58:26.962Z,45.80
2019-04-29T14:01:21.114Z,45.70
2019-04-29T14:03:49.607Z,45.10
2019-04-29T14:06:19.925Z,44.50
2019-04-29T14:08:49.749Z,45.10
2019-04-29T14:11:21.937Z,44.70
2019-04-29T14:13:50.603Z,43.50
2019-04-29T14:16:20.029Z,44.70
2019-04-29T14:18:50.025Z,44.70
2019-04-29T14:21:19.939Z,44.60
2019-04-29T14:23:49.634Z,44.40
2019-04-29T14:26:19.055Z,45.50
2019-04-29T14:28:48.437Z,45.60
2019-04-29T14:31:18.757Z,46.20
2019-04-29T14:33:55.786Z,47.60
2019-04-29T14:36:26.350Z,50.50
2019-04-29T14:38:55.829Z,55.00
2019-04-29T14:41:26.545Z,58.60
2019-04-29T14:44:30.273Z,62.10
2019-04-29T14:47:07.724Z,65.00
2019-04-29T14:49:41.228Z,65.60
2019-04-29T14:52:13.109Z,65.10
2019-04-29T14:54:43.580Z,62.00
2019-04-29T14:57:13.003Z,58.70
2019-04-29T14:59:42.577Z,58.30
2019-04-29T15:02:19.228Z,56.10
2019-04-29T15:04:49.149Z,52.40
2019-04-29T15:07:18.604Z,53.30
2019-04-29T15:09:58.060Z,49.10
2019-04-29T15:13:06.689Z,47.70
2019-04-29T15:16:04.537Z,45.20
2019-04-29T15:18:53.211Z,45.60
2019-04-29T15:21:43.700Z,45.90
2019-04-29T15:24:12.061Z,46.70
2019-04-29T15:26:41.472Z,46.60
2019-04-29T15:29:11.028Z,46.70
2019-04-29T15:31:42.581Z,46.30
2019-04-29T15:34:14.466Z,46.80
2019-04-29T15:36:43.307Z,46.30
2019-04-29T15:39:13.283Z,45.10
2019-04-29T15:41:42.763Z,45.20
2019-04-29T15:44:18.900Z,46.50
2019-04-29T15:46:47.077Z,47.40
2019-04-29T15:49:14.555Z,47.40
2019-04-29T15:51:48.663Z,47.40
2019-04-29T15:54:16.136Z,49.20
2019-04-29T15:56:46.109Z,51.40
2019-04-29T15:59:15.655Z,52.80
2019-04-29T16:01:45.067Z,53.80
2019-04-29T16:04:20.993Z,53.60
2019-04-29T16:07:17.103Z,55.90
2019-04-29T16:09:58.300Z,59.70
2019-04-29T16:12:35.751Z,64.70
2019-04-29T16:15:05.413Z,69.40
2019-04-29T16:17:38.055Z,68.40
2019-04-29T16:20:06.694Z,70.60
2019-04-29T16:22:39.127Z,72.10
2019-04-29T16:25:11.194Z,74.30
2019-04-29T16:27:41.722Z,76.70
2019-04-29T16:30:10.093Z,78.00
2019-04-29T16:32:42.230Z,79.50
2019-04-29T16:35:11.748Z,81.70
2019-04-29T16:37:41.159Z,82.40
2019-04-29T16:40:10.795Z,80.30
2019-04-29T16:43:05.594Z,82.70
2019-04-29T16:45:51.521Z,83.20
2019-04-29T16:48:16.339Z,84.50
2019-04-29T16:50:46.052Z,84.80
2019-04-29T16:53:15.706Z,85.10
2019-04-29T16:55:45.114Z,86.90
2019-04-29T17:00:52.999Z,89.40
2019-04-29T17:03:16.812Z,90.10
2019-04-29T17:05:46.183Z,91.20
2019-04-29T17:08:17.428Z,90.40
2019-04-29T17:10:53.825Z,91.40
2019-04-29T17:13:24.021Z,92.10
2019-04-29T17:15:53.882Z,92.20
2019-04-29T17:18:23.296Z,93.40
2019-04-29T17:20:52.749Z,92.90
2019-04-29T17:23:24.322Z,92.80
2019-04-29T17:25:53.182Z,93.40
2019-04-29T17:28:30.820Z,94.10
2019-04-29T17:31:28.803Z,94.30
2019-04-29T17:34:07.514Z,95.70
2019-04-29T17:35:17.088Z,89.30
2019-04-29T17:36:37.141Z,95.80
2019-04-29T17:39:07.906Z,96.60
2019-04-29T17:41:37.285Z,96.00
2019-04-29T17:44:28.563Z,95.90
2019-04-29T17:47:16.917Z,96.60
2019-04-29T17:49:57.306Z,96.90
2019-04-29T17:52:28.738Z,95.50
2019-04-29T17:55:11.022Z,96.40
2019-04-29T17:57:45.770Z,96.50
2019-04-29T18:00:43.850Z,96.50
2019-04-29T18:03:41.263Z,96.50
2019-04-29T18:06:26.260Z,96.70
2019-04-29T18:09:13.712Z,96.70
2019-04-29T18:11:51.888Z,97.00
2019-04-29T18:14:14.992Z,97.10
2019-04-29T18:16:47.813Z,97.60
2019-04-29T18:19:21.092Z,97.70
2019-04-29T18:22:07.350Z,98.30
2019-04-29T18:24:49.508Z,98.10
2019-04-29T18:27:20.424Z,97.70
2019-04-29T18:29:50.243Z,98.30
2019-04-29T18:32:19.638Z,98.80
2019-04-29T18:34:49.068Z,98.70
2019-04-29T18:37:18.468Z,99.60
2019-04-29T18:39:48.177Z,99.60
2019-04-29T18:42:17.561Z,99.60
2019-04-29T18:44:56.508Z,99.60
2019-04-29T18:47:22.594Z,99.60
2019-04-29T18:49:49.116Z,99.90
2019-04-29T18:52:25.744Z,99.90
2019-04-29T18:54:49.576Z,99.90
2019-04-29T18:57:27.682Z,99.90
2019-04-29T18:59:50.424Z,99.90
2019-04-29T19:02:19.833Z,99.90
2019-04-29T19:04:56.461Z,99.90
2019-04-29T19:07:26.305Z,99.90
2019-04-29T19:09:55.715Z,99.90
2019-04-29T19:12:25.417Z,99.90
2019-04-29T19:14:59.697Z,99.90
2019-04-29T19:17:26.209Z,99.90
2019-04-29T19:19:55.614Z,99.90
2019-04-29T19:22:25.864Z,99.90
2019-04-29T19:24:55.864Z,99.90
2019-04-29T19:27:25.978Z,99.90
2019-04-29T19:29:57.009Z,99.90
2019-04-29T19:32:26.410Z,99.90
2019-04-29T19:34:58.242Z,99.90
2019-04-29T19:37:32.091Z,99.90
2019-04-29T19:39:59.669Z,99.90
2019-04-29T19:42:35.367Z,99.90
2019-04-29T19:45:00.477Z,99.90
2019-04-29T19:47:30.186Z,99.90
2019-04-29T19:49:59.858Z,99.90
2019-04-29T19:52:31.742Z,99.90
2019-04-29T19:55:01.639Z,99.90
2019-04-29T19:57:31.395Z,99.90
2019-04-29T20:00:01.328Z,99.90
2019-04-29T20:02:31.432Z,99.90
2019-04-29T20:05:08.542Z,99.90
2019-04-29T20:07:42.350Z,99.90
2019-04-29T20:10:11.329Z,99.90
2019-04-29T20:12:40.907Z,99.90
2019-04-29T20:15:11.325Z,99.90
2019-04-29T20:18:06.484Z,99.90
2019-04-29T20:20:40.321Z,99.90
2019-04-29T20:23:09.876Z,99.90
2019-04-29T20:25:39.361Z,99.90
2019-04-29T20:28:17.256Z,99.90
2019-04-29T20:30:40.334Z,99.90
2019-04-29T20:33:12.580Z,99.90
2019-04-29T20:35:45.490Z,99.90
2019-04-29T20:38:12.002Z,99.90
2019-04-29T20:40:43.281Z,99.90
2019-04-29T20:43:12.617Z,99.90
2019-04-29T20:45:42.007Z,99.90
2019-04-29T20:48:17.866Z,99.90
2019-04-29T20:50:46.143Z,99.90
2019-04-29T20:53:21.951Z,99.90
2019-04-29T20:55:51.428Z,99.90
2019-04-29T20:58:23.672Z,99.90
2019-04-29T21:00:58.349Z,99.90
2019-04-29T21:03:29.800Z,99.90
2019-04-29T21:06:02.189Z,99.90
2019-04-29T21:08:25.965Z,99.90
2019-04-29T21:10:57.028Z,99.90
2019-04-29T21:13:57.901Z,99.90
2019-04-29T21:16:30.933Z,99.90
2019-04-29T21:19:08.743Z,99.90
2019-04-29T21:21:42.158Z,99.90
2019-04-29T21:24:13.770Z,99.90
2019-04-29T21:26:44.609Z,99.90
2019-04-29T21:29:18.088Z,99.90
2019-04-29T21:31:45.809Z,99.90
2019-04-29T21:34:17.381Z,99.90
2019-04-29T21:36:56.771Z,99.90
2019-04-29T21:39:46.847Z,99.90
2019-04-29T21:42:28.053Z,99.90
2019-04-29T21:44:58.587Z,99.90
2019-04-29T21:47:29.449Z,99.90
2019-04-29T21:49:58.880Z,99.90
2019-04-29T21:52:28.273Z,99.90
2019-04-29T21:54:57.698Z,99.90
2019-04-29T21:57:27.756Z,99.90
2019-04-29T21:59:57.159Z,99.90
2019-04-29T22:02:26.557Z,99.90
2019-04-29T22:04:55.969Z,99.90
2019-04-29T22:07:25.883Z,99.90
2019-04-29T22:09:55.755Z,99.90
2019-04-29T22:12:25.402Z,99.90
2019-04-29T22:14:56.462Z,99.90
2019-04-29T22:17:32.716Z,99.90
2019-04-29T22:20:03.818Z,99.90
2019-04-29T22:22:30.663Z,99.90
2019-04-29T22:25:05.782Z,99.90
2019-04-29T22:27:34.059Z,99.90
2019-04-29T22:30:01.530Z,99.90
2019-04-29T22:32:30.931Z,99.90
2019-04-29T22:35:01.585Z,99.90
2019-04-29T22:37:34.651Z,99.90
2019-04-29T22:40:03.226Z,99.90
2019-04-29T22:42:50.645Z,99.90
2019-04-29T22:45:20.245Z,99.90
2019-04-29T22:47:54.363Z,99.90
2019-04-29T22:50:20.969Z,99.90
2019-04-29T22:52:50.364Z,99.90
2019-04-29T22:55:19.775Z,99.90
2019-04-29T22:57:49.161Z,99.90
2019-04-29T23:00:26.276Z,99.90
2019-04-29T23:02:53.129Z,99.90
2019-04-29T23:05:23.584Z,99.90
2019-04-29T23:07:57.078Z,99.90
2019-04-29T23:10:27.922Z,99.90
2019-04-29T23:12:57.445Z,99.90
2019-04-29T23:15:27.099Z,99.90
2019-04-29T23:17:56.494Z,99.90
2019-04-29T23:20:47.905Z,99.90
2019-04-29T23:23:22.405Z,99.90
2019-04-29T23:25:53.024Z,99.90
2019-04-29T23:28:26.780Z,99.90
2019-04-29T23:30:53.583Z,99.90
2019-04-29T23:33:24.126Z,99.90
2019-04-29T23:35:56.087Z,99.90
2019-04-29T23:38:25.710Z,99.90
2019-04-29T23:40:56.412Z,99.90
2019-04-29T23:43:28.399Z,99.90
2019-04-29T23:46:00.579Z,99.90
2019-04-29T23:48:38.565Z,99.90
2019-04-29T23:50:59.459Z,99.90
2019-04-29T23:53:28.848Z,99.90
2019-04-29T23:56:00.131Z,99.90
2019-04-29T23:58:37.175Z,99.90
